sensor_id;sensor_type;location;lat;lon;timestamp;P1;durP1;ratioP1;P2;durP2;ratioP2
52031;SDS011;38044;45.148;39.604;2023-01-06T00:00:41;6.78;;;3.33;;
52031;SDS011;38044;45.148;39.604;2023-01-06T00:03:08;4.95;;;3.33;;
52031;SDS011;38044;45.148;39.604;2023-01-06T00:05:34;4.97;;;3.30;;
52031;SDS011;38044;45.148;39.604;2023-01-06T00:08:00;5.55;;;3.38;;
52031;SDS011;38044;45.148;39.604;2023-01-06T00:10:26;8.40;;;3.85;;
52031;SDS011;38044;45.148;39.604;2023-01-06T00:12:52;8.50;;;3.90;;
52031;SDS011;38044;45.148;39.604;2023-01-06T00:15:18;5.82;;;3.45;;
52031;SDS011;38044;45.148;39.604;2023-01-06T00:17:45;5.40;;;3.72;;
52031;SDS011;38044;45.148;39.604;2023-01-06T00:20:11;6.05;;;3.78;;
52031;SDS011;38044;45.148;39.604;2023-01-06T00:22:38;6.18;;;3.67;;
52031;SDS011;38044;45.148;39.604;2023-01-06T00:25:05;6.60;;;3.20;;
52031;SDS011;38044;45.148;39.604;2023-01-06T00:27:34;6.70;;;3.70;;
52031;SDS011;38044;45.148;39.604;2023-01-06T00:30:00;6.50;;;3.33;;
52031;SDS011;38044;45.148;39.604;2023-01-06T00:32:26;5.45;;;3.25;;
52031;SDS011;38044;45.148;39.604;2023-01-06T00:34:52;7.95;;;3.50;;
52031;SDS011;38044;45.148;39.604;2023-01-06T00:37:17;5.35;;;3.67;;
52031;SDS011;38044;45.148;39.604;2023-01-06T00:39:43;8.27;;;3.80;;
52031;SDS011;38044;45.148;39.604;2023-01-06T00:42:09;8.15;;;3.83;;
52031;SDS011;38044;45.148;39.604;2023-01-06T00:44:36;6.90;;;3.63;;
52031;SDS011;38044;45.148;39.604;2023-01-06T00:47:05;7.93;;;3.67;;
52031;SDS011;38044;45.148;39.604;2023-01-06T00:49:32;4.55;;;3.03;;
52031;SDS011;38044;45.148;39.604;2023-01-06T00:51:59;6.18;;;3.28;;
52031;SDS011;38044;45.148;39.604;2023-01-06T00:54:24;6.53;;;3.53;;
52031;SDS011;38044;45.148;39.604;2023-01-06T00:56:51;8.02;;;4.22;;
52031;SDS011;38044;45.148;39.604;2023-01-06T00:59:19;6.28;;;4.20;;
52031;SDS011;38044;45.148;39.604;2023-01-06T01:01:48;6.30;;;3.97;;
52031;SDS011;38044;45.148;39.604;2023-01-06T01:04:15;7.90;;;4.82;;
52031;SDS011;38044;45.148;39.604;2023-01-06T01:06:42;7.85;;;4.32;;
52031;SDS011;38044;45.148;39.604;2023-01-06T01:09:09;6.40;;;4.18;;
52031;SDS011;38044;45.148;39.604;2023-01-06T01:11:38;8.25;;;4.90;;
52031;SDS011;38044;45.148;39.604;2023-01-06T01:14:22;9.90;;;5.45;;
52031;SDS011;38044;45.148;39.604;2023-01-06T01:16:48;8.20;;;4.72;;
52031;SDS011;38044;45.148;39.604;2023-01-06T01:19:15;8.45;;;4.97;;
52031;SDS011;38044;45.148;39.604;2023-01-06T01:21:41;7.35;;;4.25;;
52031;SDS011;38044;45.148;39.604;2023-01-06T01:24:08;7.30;;;5.78;;
52031;SDS011;38044;45.148;39.604;2023-01-06T01:26:35;7.72;;;4.38;;
52031;SDS011;38044;45.148;39.604;2023-01-06T01:29:01;8.73;;;4.60;;
52031;SDS011;38044;45.148;39.604;2023-01-06T01:31:28;8.27;;;5.57;;
52031;SDS011;38044;45.148;39.604;2023-01-06T01:33:54;6.88;;;5.05;;
52031;SDS011;38044;45.148;39.604;2023-01-06T01:36:20;7.25;;;5.40;;
52031;SDS011;38044;45.148;39.604;2023-01-06T01:38:46;8.95;;;5.72;;
52031;SDS011;38044;45.148;39.604;2023-01-06T01:41:12;7.80;;;5.45;;
52031;SDS011;38044;45.148;39.604;2023-01-06T01:46:13;6.75;;;5.10;;
52031;SDS011;38044;45.148;39.604;2023-01-06T01:48:44;7.93;;;4.25;;
52031;SDS011;38044;45.148;39.604;2023-01-06T01:51:11;9.13;;;4.60;;
52031;SDS011;38044;45.148;39.604;2023-01-06T01:53:42;8.88;;;5.65;;
52031;SDS011;38044;45.148;39.604;2023-01-06T01:56:13;11.13;;;7.88;;
52031;SDS011;38044;45.148;39.604;2023-01-06T01:58:44;12.85;;;9.90;;
52031;SDS011;38044;45.148;39.604;2023-01-06T02:01:16;16.25;;;10.68;;
52031;SDS011;38044;45.148;39.604;2023-01-06T02:03:42;12.55;;;9.75;;
52031;SDS011;38044;45.148;39.604;2023-01-06T02:06:14;11.85;;;8.35;;
52031;SDS011;38044;45.148;39.604;2023-01-06T02:11:55;8.02;;;5.55;;
52031;SDS011;38044;45.148;39.604;2023-01-06T02:14:23;7.55;;;4.53;;
52031;SDS011;38044;45.148;39.604;2023-01-06T02:22:48;9.48;;;5.07;;
52031;SDS011;38044;45.148;39.604;2023-01-06T02:25:27;5.38;;;3.50;;
52031;SDS011;38044;45.148;39.604;2023-01-06T02:28:10;7.35;;;3.95;;
52031;SDS011;38044;45.148;39.604;2023-01-06T02:40:01;7.57;;;3.60;;
52031;SDS011;38044;45.148;39.604;2023-01-06T02:42:16;8.27;;;3.75;;
52031;SDS011;38044;45.148;39.604;2023-01-06T02:50:45;4.43;;;3.00;;
52031;SDS011;38044;45.148;39.604;2023-01-06T02:56:05;4.35;;;3.10;;
52031;SDS011;38044;45.148;39.604;2023-01-06T03:00:59;7.43;;;3.30;;
52031;SDS011;38044;45.148;39.604;2023-01-06T03:03:48;5.63;;;2.80;;
52031;SDS011;38044;45.148;39.604;2023-01-06T03:06:17;4.93;;;3.03;;
52031;SDS011;38044;45.148;39.604;2023-01-06T03:08:48;6.05;;;2.58;;
52031;SDS011;38044;45.148;39.604;2023-01-06T03:11:17;7.35;;;2.72;;
52031;SDS011;38044;45.148;39.604;2023-01-06T03:13:45;7.53;;;3.05;;
52031;SDS011;38044;45.148;39.604;2023-01-06T03:16:20;5.93;;;2.70;;
52031;SDS011;38044;45.148;39.604;2023-01-06T03:18:46;4.72;;;2.50;;
52031;SDS011;38044;45.148;39.604;2023-01-06T03:21:18;6.25;;;3.15;;
52031;SDS011;38044;45.148;39.604;2023-01-06T03:23:47;6.18;;;2.85;;
52031;SDS011;38044;45.148;39.604;2023-01-06T03:26:13;5.28;;;2.63;;
52031;SDS011;38044;45.148;39.604;2023-01-06T03:28:39;4.45;;;2.30;;
52031;SDS011;38044;45.148;39.604;2023-01-06T03:33:59;4.13;;;2.20;;
52031;SDS011;38044;45.148;39.604;2023-01-06T03:39:42;3.95;;;2.22;;
52031;SDS011;38044;45.148;39.604;2023-01-06T03:45:10;9.73;;;3.22;;
52031;SDS011;38044;45.148;39.604;2023-01-06T03:50:22;11.88;;;3.67;;
52031;SDS011;38044;45.148;39.604;2023-01-06T03:56:08;11.30;;;4.00;;
52031;SDS011;38044;45.148;39.604;2023-01-06T03:58:58;6.28;;;2.60;;
52031;SDS011;38044;45.148;39.604;2023-01-06T04:01:28;10.00;;;4.18;;
52031;SDS011;38044;45.148;39.604;2023-01-06T04:03:54;5.53;;;2.65;;
52031;SDS011;38044;45.148;39.604;2023-01-06T04:06:21;5.95;;;2.53;;
52031;SDS011;38044;45.148;39.604;2023-01-06T04:08:47;9.05;;;3.40;;
52031;SDS011;38044;45.148;39.604;2023-01-06T04:11:13;3.90;;;2.72;;
52031;SDS011;38044;45.148;39.604;2023-01-06T04:13:57;4.28;;;1.95;;
52031;SDS011;38044;45.148;39.604;2023-01-06T04:16:23;5.20;;;2.25;;
52031;SDS011;38044;45.148;39.604;2023-01-06T04:18:49;2.78;;;1.92;;
52031;SDS011;38044;45.148;39.604;2023-01-06T04:21:15;2.90;;;1.95;;
52031;SDS011;38044;45.148;39.604;2023-01-06T04:23:41;3.38;;;1.90;;
52031;SDS011;38044;45.148;39.604;2023-01-06T04:26:07;4.22;;;1.98;;
52031;SDS011;38044;45.148;39.604;2023-01-06T04:28:33;3.25;;;1.63;;
52031;SDS011;38044;45.148;39.604;2023-01-06T04:30:59;5.53;;;1.70;;
52031;SDS011;38044;45.148;39.604;2023-01-06T04:33:26;3.17;;;2.13;;
52031;SDS011;38044;45.148;39.604;2023-01-06T04:35:52;2.40;;;1.60;;
52031;SDS011;38044;45.148;39.604;2023-01-06T04:38:18;2.00;;;1.25;;
52031;SDS011;38044;45.148;39.604;2023-01-06T04:40:44;2.22;;;1.85;;
52031;SDS011;38044;45.148;39.604;2023-01-06T04:43:10;5.72;;;5.00;;
52031;SDS011;38044;45.148;39.604;2023-01-06T04:45:43;4.57;;;2.17;;
52031;SDS011;38044;45.148;39.604;2023-01-06T04:48:09;3.40;;;2.05;;
52031;SDS011;38044;45.148;39.604;2023-01-06T04:50:36;5.85;;;1.83;;
52031;SDS011;38044;45.148;39.604;2023-01-06T04:53:02;2.67;;;1.92;;
52031;SDS011;38044;45.148;39.604;2023-01-06T04:55:29;2.10;;;1.50;;
52031;SDS011;38044;45.148;39.604;2023-01-06T04:57:55;4.13;;;1.60;;
52031;SDS011;38044;45.148;39.604;2023-01-06T05:00:21;3.65;;;1.70;;
52031;SDS011;38044;45.148;39.604;2023-01-06T05:02:47;2.55;;;1.35;;
52031;SDS011;38044;45.148;39.604;2023-01-06T05:05:13;3.10;;;1.70;;
52031;SDS011;38044;45.148;39.604;2023-01-06T05:07:40;3.65;;;1.58;;
52031;SDS011;38044;45.148;39.604;2023-01-06T05:10:06;2.63;;;1.60;;
52031;SDS011;38044;45.148;39.604;2023-01-06T05:12:33;3.03;;;1.50;;
52031;SDS011;38044;45.148;39.604;2023-01-06T05:14:59;3.75;;;1.50;;
52031;SDS011;38044;45.148;39.604;2023-01-06T05:17:25;3.30;;;1.63;;
52031;SDS011;38044;45.148;39.604;2023-01-06T05:19:50;8.48;;;4.97;;
52031;SDS011;38044;45.148;39.604;2023-01-06T05:22:16;5.60;;;3.60;;
52031;SDS011;38044;45.148;39.604;2023-01-06T05:24:42;4.32;;;2.25;;
52031;SDS011;38044;45.148;39.604;2023-01-06T05:27:08;4.97;;;2.10;;
52031;SDS011;38044;45.148;39.604;2023-01-06T05:29:34;5.03;;;2.08;;
52031;SDS011;38044;45.148;39.604;2023-01-06T05:32:00;6.47;;;3.00;;
52031;SDS011;38044;45.148;39.604;2023-01-06T05:34:26;5.55;;;2.85;;
52031;SDS011;38044;45.148;39.604;2023-01-06T05:36:52;3.45;;;2.20;;
52031;SDS011;38044;45.148;39.604;2023-01-06T05:39:18;4.60;;;2.65;;
52031;SDS011;38044;45.148;39.604;2023-01-06T05:41:44;7.40;;;2.38;;
52031;SDS011;38044;45.148;39.604;2023-01-06T05:44:13;5.53;;;2.10;;
52031;SDS011;38044;45.148;39.604;2023-01-06T05:46:38;4.78;;;2.85;;
52031;SDS011;38044;45.148;39.604;2023-01-06T05:49:04;5.40;;;2.38;;
52031;SDS011;38044;45.148;39.604;2023-01-06T05:51:30;4.43;;;2.35;;
52031;SDS011;38044;45.148;39.604;2023-01-06T05:53:56;4.30;;;2.72;;
52031;SDS011;38044;45.148;39.604;2023-01-06T05:56:22;5.45;;;2.67;;
52031;SDS011;38044;45.148;39.604;2023-01-06T05:58:49;3.10;;;2.15;;
52031;SDS011;38044;45.148;39.604;2023-01-06T06:03:50;5.93;;;2.92;;
52031;SDS011;38044;45.148;39.604;2023-01-06T06:06:17;4.57;;;3.05;;
52031;SDS011;38044;45.148;39.604;2023-01-06T06:08:43;4.75;;;2.92;;
52031;SDS011;38044;45.148;39.604;2023-01-06T06:11:11;6.05;;;3.25;;
52031;SDS011;38044;45.148;39.604;2023-01-06T06:13:44;5.28;;;3.15;;
52031;SDS011;38044;45.148;39.604;2023-01-06T06:16:12;6.50;;;3.25;;
52031;SDS011;38044;45.148;39.604;2023-01-06T06:18:39;8.57;;;3.83;;
52031;SDS011;38044;45.148;39.604;2023-01-06T06:21:10;8.30;;;3.60;;
52031;SDS011;38044;45.148;39.604;2023-01-06T06:23:37;8.77;;;3.53;;
52031;SDS011;38044;45.148;39.604;2023-01-06T06:26:04;11.18;;;4.10;;
52031;SDS011;38044;45.148;39.604;2023-01-06T06:28:31;9.98;;;4.10;;
52031;SDS011;38044;45.148;39.604;2023-01-06T06:31:07;7.45;;;3.47;;
52031;SDS011;38044;45.148;39.604;2023-01-06T06:33:35;7.88;;;3.10;;
52031;SDS011;38044;45.148;39.604;2023-01-06T06:36:01;6.55;;;3.13;;
52031;SDS011;38044;45.148;39.604;2023-01-06T06:38:28;5.65;;;3.35;;
52031;SDS011;38044;45.148;39.604;2023-01-06T06:40:54;7.80;;;5.30;;
52031;SDS011;38044;45.148;39.604;2023-01-06T06:43:20;4.28;;;2.60;;
52031;SDS011;38044;45.148;39.604;2023-01-06T06:45:46;4.78;;;2.25;;
52031;SDS011;38044;45.148;39.604;2023-01-06T06:48:13;5.43;;;1.65;;
52031;SDS011;38044;45.148;39.604;2023-01-06T06:50:39;2.60;;;1.30;;
52031;SDS011;38044;45.148;39.604;2023-01-06T06:53:05;3.47;;;1.60;;
52031;SDS011;38044;45.148;39.604;2023-01-06T06:55:32;3.28;;;1.40;;
52031;SDS011;38044;45.148;39.604;2023-01-06T06:57:58;3.10;;;1.77;;
52031;SDS011;38044;45.148;39.604;2023-01-06T07:00:24;3.38;;;1.70;;
52031;SDS011;38044;45.148;39.604;2023-01-06T07:02:50;6.03;;;2.35;;
52031;SDS011;38044;45.148;39.604;2023-01-06T07:05:17;4.43;;;2.28;;
52031;SDS011;38044;45.148;39.604;2023-01-06T07:07:43;5.10;;;2.15;;
52031;SDS011;38044;45.148;39.604;2023-01-06T07:10:11;8.90;;;2.60;;
52031;SDS011;38044;45.148;39.604;2023-01-06T07:12:38;9.65;;;3.10;;
52031;SDS011;38044;45.148;39.604;2023-01-06T07:15:04;8.10;;;2.95;;
52031;SDS011;38044;45.148;39.604;2023-01-06T07:17:31;5.55;;;1.92;;
52031;SDS011;38044;45.148;39.604;2023-01-06T07:19:56;7.50;;;2.78;;
52031;SDS011;38044;45.148;39.604;2023-01-06T07:22:22;6.57;;;2.45;;
52031;SDS011;38044;45.148;39.604;2023-01-06T07:24:48;7.22;;;2.88;;
52031;SDS011;38044;45.148;39.604;2023-01-06T07:27:14;3.75;;;1.60;;
52031;SDS011;38044;45.148;39.604;2023-01-06T07:29:39;8.48;;;2.10;;
52031;SDS011;38044;45.148;39.604;2023-01-06T07:32:05;3.72;;;1.75;;
52031;SDS011;38044;45.148;39.604;2023-01-06T07:34:31;4.57;;;1.52;;
52031;SDS011;38044;45.148;39.604;2023-01-06T07:36:57;6.43;;;1.20;;
52031;SDS011;38044;45.148;39.604;2023-01-06T07:39:23;2.25;;;1.25;;
52031;SDS011;38044;45.148;39.604;2023-01-06T07:41:48;4.65;;;1.70;;
52031;SDS011;38044;45.148;39.604;2023-01-06T07:44:14;3.47;;;1.10;;
52031;SDS011;38044;45.148;39.604;2023-01-06T07:46:40;3.40;;;1.23;;
52031;SDS011;38044;45.148;39.604;2023-01-06T07:49:06;8.63;;;2.90;;
52031;SDS011;38044;45.148;39.604;2023-01-06T07:51:31;4.15;;;2.10;;
52031;SDS011;38044;45.148;39.604;2023-01-06T07:53:57;9.77;;;3.38;;
52031;SDS011;38044;45.148;39.604;2023-01-06T07:56:23;8.75;;;2.63;;
52031;SDS011;38044;45.148;39.604;2023-01-06T07:58:49;3.85;;;1.83;;
52031;SDS011;38044;45.148;39.604;2023-01-06T08:01:15;6.95;;;2.50;;
52031;SDS011;38044;45.148;39.604;2023-01-06T08:03:41;5.55;;;2.88;;
52031;SDS011;38044;45.148;39.604;2023-01-06T08:06:07;6.72;;;2.30;;
52031;SDS011;38044;45.148;39.604;2023-01-06T08:08:37;10.70;;;3.05;;
52031;SDS011;38044;45.148;39.604;2023-01-06T08:11:04;10.73;;;3.22;;
52031;SDS011;38044;45.148;39.604;2023-01-06T08:13:31;9.57;;;3.17;;
52031;SDS011;38044;45.148;39.604;2023-01-06T08:15:58;15.45;;;4.68;;
52031;SDS011;38044;45.148;39.604;2023-01-06T08:18:28;16.90;;;4.50;;
52031;SDS011;38044;45.148;39.604;2023-01-06T08:20:58;19.45;;;4.65;;
52031;SDS011;38044;45.148;39.604;2023-01-06T08:23:25;15.02;;;4.25;;
52031;SDS011;38044;45.148;39.604;2023-01-06T08:25:51;4.93;;;2.38;;
52031;SDS011;38044;45.148;39.604;2023-01-06T08:28:16;2.53;;;1.25;;
52031;SDS011;38044;45.148;39.604;2023-01-06T08:30:42;5.18;;;1.45;;
52031;SDS011;38044;45.148;39.604;2023-01-06T08:33:08;8.70;;;3.03;;
52031;SDS011;38044;45.148;39.604;2023-01-06T08:35:34;8.30;;;2.30;;
52031;SDS011;38044;45.148;39.604;2023-01-06T08:38:00;3.75;;;1.50;;
52031;SDS011;38044;45.148;39.604;2023-01-06T08:40:25;12.07;;;3.63;;
52031;SDS011;38044;45.148;39.604;2023-01-06T08:42:51;16.25;;;4.38;;
52031;SDS011;38044;45.148;39.604;2023-01-06T08:45:17;9.52;;;3.10;;
52031;SDS011;38044;45.148;39.604;2023-01-06T08:47:43;15.65;;;3.88;;
52031;SDS011;38044;45.148;39.604;2023-01-06T08:50:08;13.20;;;4.72;;
52031;SDS011;38044;45.148;39.604;2023-01-06T08:52:34;7.97;;;2.95;;
52031;SDS011;38044;45.148;39.604;2023-01-06T08:55:00;15.80;;;4.13;;
52031;SDS011;38044;45.148;39.604;2023-01-06T08:57:26;11.75;;;3.30;;
52031;SDS011;38044;45.148;39.604;2023-01-06T08:59:52;15.77;;;4.50;;
52031;SDS011;38044;45.148;39.604;2023-01-06T09:02:18;12.88;;;3.20;;
52031;SDS011;38044;45.148;39.604;2023-01-06T09:04:43;5.25;;;1.88;;
52031;SDS011;38044;45.148;39.604;2023-01-06T09:07:09;5.05;;;1.67;;
52031;SDS011;38044;45.148;39.604;2023-01-06T09:09:35;2.42;;;1.20;;
52031;SDS011;38044;45.148;39.604;2023-01-06T09:12:01;3.58;;;1.38;;
52031;SDS011;38044;45.148;39.604;2023-01-06T09:14:27;3.55;;;1.50;;
52031;SDS011;38044;45.148;39.604;2023-01-06T09:16:53;3.95;;;1.20;;
52031;SDS011;38044;45.148;39.604;2023-01-06T09:19:19;2.47;;;1.20;;
52031;SDS011;38044;45.148;39.604;2023-01-06T09:21:45;1.27;;;0.80;;
52031;SDS011;38044;45.148;39.604;2023-01-06T09:24:11;3.05;;;1.50;;
52031;SDS011;38044;45.148;39.604;2023-01-06T09:26:38;4.35;;;1.55;;
52031;SDS011;38044;45.148;39.604;2023-01-06T09:29:04;5.93;;;2.67;;
52031;SDS011;38044;45.148;39.604;2023-01-06T09:31:29;7.28;;;2.03;;
52031;SDS011;38044;45.148;39.604;2023-01-06T09:33:55;12.23;;;3.50;;
52031;SDS011;38044;45.148;39.604;2023-01-06T09:36:21;8.10;;;2.60;;
52031;SDS011;38044;45.148;39.604;2023-01-06T09:38:47;6.35;;;2.95;;
52031;SDS011;38044;45.148;39.604;2023-01-06T09:41:32;9.82;;;3.38;;
52031;SDS011;38044;45.148;39.604;2023-01-06T09:47:03;3.45;;;1.23;;
52031;SDS011;38044;45.148;39.604;2023-01-06T09:49:38;1.88;;;0.73;;
52031;SDS011;38044;45.148;39.604;2023-01-06T09:54:55;4.30;;;1.55;;
52031;SDS011;38044;45.148;39.604;2023-01-06T09:57:31;7.28;;;2.10;;
52031;SDS011;38044;45.148;39.604;2023-01-06T10:00:05;5.03;;;1.45;;
52031;SDS011;38044;45.148;39.604;2023-01-06T10:02:39;7.13;;;2.15;;
52031;SDS011;38044;45.148;39.604;2023-01-06T10:08:56;1.80;;;0.90;;
52031;SDS011;38044;45.148;39.604;2023-01-06T10:16:34;1.42;;;0.80;;
52031;SDS011;38044;45.148;39.604;2023-01-06T10:24:57;1.60;;;0.93;;
52031;SDS011;38044;45.148;39.604;2023-01-06T10:27:29;4.38;;;1.45;;
52031;SDS011;38044;45.148;39.604;2023-01-06T10:29:57;1.75;;;1.05;;
52031;SDS011;38044;45.148;39.604;2023-01-06T10:32:26;1.63;;;0.90;;
52031;SDS011;38044;45.148;39.604;2023-01-06T10:34:56;1.60;;;0.80;;
52031;SDS011;38044;45.148;39.604;2023-01-06T10:37:35;1.63;;;0.98;;
52031;SDS011;38044;45.148;39.604;2023-01-06T10:43:06;0.70;;;0.50;;
52031;SDS011;38044;45.148;39.604;2023-01-06T10:48:06;2.00;;;1.10;;
52031;SDS011;38044;45.148;39.604;2023-01-06T10:50:37;3.45;;;1.20;;
52031;SDS011;38044;45.148;39.604;2023-01-06T10:53:03;2.67;;;1.30;;
52031;SDS011;38044;45.148;39.604;2023-01-06T10:55:38;9.50;;;2.45;;
52031;SDS011;38044;45.148;39.604;2023-01-06T10:58:09;8.98;;;2.80;;
52031;SDS011;38044;45.148;39.604;2023-01-06T11:00:58;6.80;;;2.22;;
52031;SDS011;38044;45.148;39.604;2023-01-06T11:03:33;3.35;;;1.23;;
52031;SDS011;38044;45.148;39.604;2023-01-06T11:06:21;2.47;;;0.70;;
52031;SDS011;38044;45.148;39.604;2023-01-06T11:08:51;5.57;;;1.65;;
52031;SDS011;38044;45.148;39.604;2023-01-06T11:11:18;3.80;;;1.33;;
52031;SDS011;38044;45.148;39.604;2023-01-06T11:13:48;5.32;;;1.50;;
52031;SDS011;38044;45.148;39.604;2023-01-06T11:16:24;2.35;;;1.05;;
52031;SDS011;38044;45.148;39.604;2023-01-06T11:19:04;1.35;;;0.70;;
52031;SDS011;38044;45.148;39.604;2023-01-06T11:21:39;0.57;;;0.30;;
52031;SDS011;38044;45.148;39.604;2023-01-06T11:24:08;0.50;;;0.30;;
52031;SDS011;38044;45.148;39.604;2023-01-06T11:26:51;0.50;;;0.40;;
52031;SDS011;38044;45.148;39.604;2023-01-06T11:29:33;2.15;;;0.35;;
52031;SDS011;38044;45.148;39.604;2023-01-06T11:32:03;2.58;;;0.40;;
52031;SDS011;38044;45.148;39.604;2023-01-06T11:34:39;1.45;;;0.50;;
52031;SDS011;38044;45.148;39.604;2023-01-06T11:37:28;0.52;;;0.30;;
52031;SDS011;38044;45.148;39.604;2023-01-06T11:43:01;0.95;;;0.30;;
52031;SDS011;38044;45.148;39.604;2023-01-06T11:48:12;4.55;;;1.10;;
52031;SDS011;38044;45.148;39.604;2023-01-06T11:50:48;5.65;;;1.52;;
52031;SDS011;38044;45.148;39.604;2023-01-06T11:53:17;4.47;;;0.90;;
52031;SDS011;38044;45.148;39.604;2023-01-06T11:56:00;2.88;;;0.73;;
52031;SDS011;38044;45.148;39.604;2023-01-06T11:58:39;1.05;;;0.60;;
52031;SDS011;38044;45.148;39.604;2023-01-06T12:06:50;0.80;;;0.30;;
52031;SDS011;38044;45.148;39.604;2023-01-06T12:09:22;2.47;;;0.82;;
52031;SDS011;38044;45.148;39.604;2023-01-06T12:11:55;1.08;;;0.60;;
52031;SDS011;38044;45.148;39.604;2023-01-06T12:14:23;6.88;;;2.17;;
52031;SDS011;38044;45.148;39.604;2023-01-06T12:16:55;5.18;;;1.42;;
52031;SDS011;38044;45.148;39.604;2023-01-06T12:19:35;4.80;;;1.63;;
52031;SDS011;38044;45.148;39.604;2023-01-06T12:22:02;0.88;;;0.50;;
52031;SDS011;38044;45.148;39.604;2023-01-06T12:24:29;0.38;;;0.30;;
52031;SDS011;38044;45.148;39.604;2023-01-06T12:26:59;0.73;;;0.20;;
52031;SDS011;38044;45.148;39.604;2023-01-06T12:29:27;0.47;;;0.40;;
52031;SDS011;38044;45.148;39.604;2023-01-06T12:34:34;1.17;;;0.40;;
52031;SDS011;38044;45.148;39.604;2023-01-06T12:37:26;0.47;;;0.30;;
52031;SDS011;38044;45.148;39.604;2023-01-06T12:42:54;2.67;;;0.80;;
52031;SDS011;38044;45.148;39.604;2023-01-06T12:45:29;0.95;;;0.43;;
52031;SDS011;38044;45.148;39.604;2023-01-06T12:47:56;0.95;;;0.45;;
52031;SDS011;38044;45.148;39.604;2023-01-06T12:53:04;10.88;;;2.53;;
52031;SDS011;38044;45.148;39.604;2023-01-06T13:01:19;4.70;;;1.17;;
52031;SDS011;38044;45.148;39.604;2023-01-06T13:04:17;3.15;;;2.03;;
52031;SDS011;38044;45.148;39.604;2023-01-06T13:07:01;2.05;;;1.55;;
52031;SDS011;38044;45.148;39.604;2023-01-06T13:12:29;6.07;;;1.58;;
52031;SDS011;38044;45.148;39.604;2023-01-06T13:15:16;1.83;;;0.90;;
52031;SDS011;38044;45.148;39.604;2023-01-06T13:20:39;4.78;;;3.88;;
52031;SDS011;38044;45.148;39.604;2023-01-06T13:28:44;17.08;;;4.70;;
52031;SDS011;38044;45.148;39.604;2023-01-06T13:40:06;13.60;;;5.43;;
52031;SDS011;38044;45.148;39.604;2023-01-06T13:45:23;11.40;;;3.92;;
52031;SDS011;38044;45.148;39.604;2023-01-06T13:47:54;15.88;;;5.85;;
52031;SDS011;38044;45.148;39.604;2023-01-06T13:50:23;15.68;;;4.78;;
52031;SDS011;38044;45.148;39.604;2023-01-06T13:52:50;9.52;;;3.45;;
52031;SDS011;38044;45.148;39.604;2023-01-06T13:57:55;4.13;;;1.80;;
52031;SDS011;38044;45.148;39.604;2023-01-06T14:00:24;2.85;;;1.70;;
52031;SDS011;38044;45.148;39.604;2023-01-06T14:07:49;3.88;;;1.92;;
52031;SDS011;38044;45.148;39.604;2023-01-06T14:12:57;16.25;;;4.88;;
52031;SDS011;38044;45.148;39.604;2023-01-06T14:15:26;17.08;;;4.93;;
52031;SDS011;38044;45.148;39.604;2023-01-06T14:17:55;12.77;;;4.53;;
52031;SDS011;38044;45.148;39.604;2023-01-06T14:20:29;12.73;;;4.65;;
52031;SDS011;38044;45.148;39.604;2023-01-06T14:23:04;21.83;;;7.28;;
52031;SDS011;38044;45.148;39.604;2023-01-06T14:25:42;16.92;;;6.00;;
52031;SDS011;38044;45.148;39.604;2023-01-06T14:30:44;6.40;;;3.35;;
52031;SDS011;38044;45.148;39.604;2023-01-06T14:33:21;4.55;;;1.77;;
52031;SDS011;38044;45.148;39.604;2023-01-06T14:36:09;2.38;;;1.40;;
52031;SDS011;38044;45.148;39.604;2023-01-06T14:38:44;2.35;;;1.30;;
52031;SDS011;38044;45.148;39.604;2023-01-06T14:41:18;8.52;;;2.35;;
52031;SDS011;38044;45.148;39.604;2023-01-06T14:43:54;3.92;;;1.73;;
52031;SDS011;38044;45.148;39.604;2023-01-06T14:46:32;7.18;;;2.50;;
52031;SDS011;38044;45.148;39.604;2023-01-06T14:49:05;6.32;;;1.75;;
52031;SDS011;38044;45.148;39.604;2023-01-06T14:51:39;3.53;;;1.48;;
52031;SDS011;38044;45.148;39.604;2023-01-06T14:54:15;14.80;;;4.60;;
52031;SDS011;38044;45.148;39.604;2023-01-06T14:56:56;14.63;;;4.82;;
52031;SDS011;38044;45.148;39.604;2023-01-06T14:59:24;6.63;;;3.00;;
52031;SDS011;38044;45.148;39.604;2023-01-06T15:01:55;6.18;;;2.83;;
52031;SDS011;38044;45.148;39.604;2023-01-06T15:04:30;24.67;;;7.45;;
52031;SDS011;38044;45.148;39.604;2023-01-06T15:07:14;9.30;;;4.47;;
52031;SDS011;38044;45.148;39.604;2023-01-06T15:09:45;8.02;;;6.22;;
52031;SDS011;38044;45.148;39.604;2023-01-06T15:12:27;7.85;;;5.93;;
52031;SDS011;38044;45.148;39.604;2023-01-06T15:14:55;10.95;;;7.47;;
52031;SDS011;38044;45.148;39.604;2023-01-06T15:17:22;8.13;;;5.95;;
52031;SDS011;38044;45.148;39.604;2023-01-06T15:19:48;9.13;;;5.60;;
52031;SDS011;38044;45.148;39.604;2023-01-06T15:22:20;13.32;;;7.50;;
52031;SDS011;38044;45.148;39.604;2023-01-06T15:24:49;10.63;;;6.77;;
52031;SDS011;38044;45.148;39.604;2023-01-06T15:27:16;8.35;;;6.05;;
52031;SDS011;38044;45.148;39.604;2023-01-06T15:29:50;8.30;;;5.72;;
52031;SDS011;38044;45.148;39.604;2023-01-06T15:32:21;10.10;;;6.03;;
52031;SDS011;38044;45.148;39.604;2023-01-06T15:34:50;12.13;;;7.20;;
52031;SDS011;38044;45.148;39.604;2023-01-06T15:37:23;10.13;;;7.15;;
52031;SDS011;38044;45.148;39.604;2023-01-06T15:39:51;11.90;;;7.35;;
52031;SDS011;38044;45.148;39.604;2023-01-06T15:42:20;12.07;;;7.47;;
52031;SDS011;38044;45.148;39.604;2023-01-06T15:44:57;13.57;;;8.63;;
52031;SDS011;38044;45.148;39.604;2023-01-06T15:47:30;17.70;;;11.98;;
52031;SDS011;38044;45.148;39.604;2023-01-06T15:50:15;15.32;;;10.65;;
52031;SDS011;38044;45.148;39.604;2023-01-06T15:58:07;15.80;;;8.98;;
52031;SDS011;38044;45.148;39.604;2023-01-06T16:00:51;15.32;;;9.07;;
52031;SDS011;38044;45.148;39.604;2023-01-06T16:03:24;18.42;;;10.73;;
52031;SDS011;38044;45.148;39.604;2023-01-06T16:06:02;19.15;;;9.95;;
52031;SDS011;38044;45.148;39.604;2023-01-06T16:08:33;18.95;;;10.57;;
52031;SDS011;38044;45.148;39.604;2023-01-06T16:14:03;15.52;;;9.23;;
52031;SDS011;38044;45.148;39.604;2023-01-06T16:16:32;18.15;;;10.27;;
52031;SDS011;38044;45.148;39.604;2023-01-06T16:19:06;18.83;;;10.73;;
52031;SDS011;38044;45.148;39.604;2023-01-06T16:21:34;13.60;;;8.95;;
52031;SDS011;38044;45.148;39.604;2023-01-06T16:24:02;14.25;;;8.50;;
52031;SDS011;38044;45.148;39.604;2023-01-06T16:26:42;12.63;;;8.70;;
52031;SDS011;38044;45.148;39.604;2023-01-06T16:29:26;12.00;;;7.90;;
52031;SDS011;38044;45.148;39.604;2023-01-06T16:31:54;13.10;;;7.93;;
52031;SDS011;38044;45.148;39.604;2023-01-06T16:36:47;16.58;;;9.07;;
52031;SDS011;38044;45.148;39.604;2023-01-06T16:39:14;14.60;;;9.18;;
52031;SDS011;38044;45.148;39.604;2023-01-06T16:41:43;14.32;;;9.15;;
52031;SDS011;38044;45.148;39.604;2023-01-06T16:44:29;16.02;;;9.40;;
52031;SDS011;38044;45.148;39.604;2023-01-06T16:46:57;13.27;;;8.38;;
52031;SDS011;38044;45.148;39.604;2023-01-06T16:49:25;11.32;;;7.80;;
52031;SDS011;38044;45.148;39.604;2023-01-06T16:51:50;13.05;;;7.75;;
52031;SDS011;38044;45.148;39.604;2023-01-06T16:54:18;9.13;;;7.00;;
52031;SDS011;38044;45.148;39.604;2023-01-06T16:56:45;11.40;;;6.82;;
52031;SDS011;38044;45.148;39.604;2023-01-06T16:59:12;8.40;;;6.18;;
52031;SDS011;38044;45.148;39.604;2023-01-06T17:01:42;9.50;;;6.30;;
52031;SDS011;38044;45.148;39.604;2023-01-06T17:04:09;13.20;;;8.38;;
52031;SDS011;38044;45.148;39.604;2023-01-06T17:06:38;10.65;;;8.45;;
52031;SDS011;38044;45.148;39.604;2023-01-06T17:09:37;11.95;;;7.57;;
52031;SDS011;38044;45.148;39.604;2023-01-06T17:11:56;10.48;;;7.38;;